createdAt,value
2022-08-25T00:02:01.989Z,94886.53
2022-08-25T00:04:30.352Z,94884.59
2022-08-25T00:07:02.772Z,94886.81
2022-08-25T00:09:31.497Z,94889.06
2022-08-25T00:11:58.929Z,94899.53
2022-08-25T00:14:29.227Z,94888.03
2022-08-25T00:16:56.131Z,94886.19
2022-08-25T00:19:26.961Z,94896.66
2022-08-25T00:21:54.778Z,94885.81
2022-08-25T00:24:22.500Z,94873.09
2022-08-25T00:26:52.421Z,94871.88
2022-08-25T00:29:19.432Z,94875.66
2022-08-25T00:31:46.388Z,94875.72
2022-08-25T00:34:17.689Z,94872.13
2022-08-25T00:36:45.178Z,94879.16
2022-08-25T00:39:11.841Z,94881.88
2022-08-25T00:41:41.903Z,94877.88
2022-08-25T00:44:17.488Z,94882.22
2022-08-25T00:46:47.669Z,94876.38
2022-08-25T00:49:17.949Z,94884.75
2022-08-25T00:51:56.964Z,94888.53
2022-08-25T00:54:34.973Z,94883.66
2022-08-25T00:57:03.962Z,94881.53
2022-08-25T00:59:32.514Z,94872.63
2022-08-25T01:02:00.049Z,94886.84
2022-08-25T01:04:27.445Z,94879.34
2022-08-25T01:06:55.503Z,94876.84
2022-08-25T01:09:22.250Z,94870.41
2022-08-25T01:11:49.303Z,94860.66
2022-08-25T01:14:18.939Z,94847.19
2022-08-25T01:16:46.356Z,94860.22
2022-08-25T01:19:17.708Z,94870.91
2022-08-25T01:21:49.131Z,94867.75
2022-08-25T01:24:41.088Z,94870.28
2022-08-25T01:27:08.431Z,94863.19
2022-08-25T01:29:36.163Z,94853.41
2022-08-25T01:32:06.194Z,94850.72
2022-08-25T01:34:36.743Z,94851.94
2022-08-25T01:37:04.748Z,94857.44
2022-08-25T01:39:34.023Z,94863.03
2022-08-25T01:42:09.557Z,94872.13
2022-08-25T01:44:39.122Z,94854.84
2022-08-25T01:47:07.000Z,94848.41
2022-08-25T01:49:34.050Z,94849.63
2022-08-25T01:52:11.330Z,94841.75
2022-08-25T01:54:38.295Z,94842.44
2022-08-25T01:57:05.063Z,94852.66
2022-08-25T01:59:31.684Z,94853.91
2022-08-25T02:02:00.183Z,94854.09
2022-08-25T02:04:32.097Z,94860.28
2022-08-25T02:07:02.769Z,94867.47
2022-08-25T02:09:29.689Z,94860.41
2022-08-25T02:11:56.928Z,94862.00
2022-08-25T02:14:24.196Z,94856.84
2022-08-25T02:16:53.124Z,94853.94
2022-08-25T02:19:22.165Z,94849.53
2022-08-25T02:21:49.005Z,94844.53
2022-08-25T02:24:16.025Z,94851.16
2022-08-25T02:26:42.778Z,94847.88
2022-08-25T02:29:10.463Z,94842.13
2022-08-25T02:31:37.250Z,94855.06
2022-08-25T02:34:04.696Z,94838.84
2022-08-25T02:36:32.345Z,94837.97
2022-08-25T02:38:59.799Z,94830.06
2022-08-25T02:41:31.282Z,94841.84
2022-08-25T02:44:00.071Z,94844.63
2022-08-25T02:46:27.266Z,94847.50
2022-08-25T02:48:54.042Z,94846.84
2022-08-25T02:51:22.666Z,94857.53
2022-08-25T02:53:49.871Z,94847.09
2022-08-25T02:56:18.275Z,94855.06
2022-08-25T02:58:46.019Z,94860.91
2022-08-25T03:01:13.937Z,94846.72
2022-08-25T03:03:42.187Z,94864.63
2022-08-25T03:06:13.209Z,94869.38
2022-08-25T03:08:41.727Z,94861.84
2022-08-25T03:11:08.538Z,94859.91
2022-08-25T03:13:35.620Z,94872.16
2022-08-25T03:16:03.172Z,94871.88
2022-08-25T03:18:30.768Z,94874.88
2022-08-25T03:20:57.649Z,94869.06
2022-08-25T03:23:24.791Z,94854.25
2022-08-25T03:26:10.162Z,94861.41
2022-08-25T03:28:36.885Z,94862.38
2022-08-25T03:31:04.287Z,94849.00
2022-08-25T03:33:31.675Z,94861.19
2022-08-25T03:35:59.249Z,94855.59
2022-08-25T03:38:27.365Z,94847.41
2022-08-25T03:40:54.371Z,94854.16
2022-08-25T03:43:21.475Z,94855.97
2022-08-25T03:45:48.652Z,94863.19
2022-08-25T03:48:16.484Z,94871.00
2022-08-25T03:50:51.683Z,94851.94
2022-08-25T03:53:20.339Z,94855.69
2022-08-25T03:55:47.502Z,94861.19
2022-08-25T03:58:14.412Z,94857.44
2022-08-25T04:00:41.086Z,94842.09
2022-08-25T04:03:07.796Z,94849.06
2022-08-25T04:05:35.334Z,94841.97
2022-08-25T04:08:02.313Z,94848.41
2022-08-25T04:10:29.610Z,94844.72
2022-08-25T04:12:57.271Z,94849.50
2022-08-25T04:15:28.614Z,94854.81
2022-08-25T04:17:59.088Z,94843.47
2022-08-25T04:20:26.233Z,94853.44
2022-08-25T04:22:53.190Z,94846.38
2022-08-25T04:25:20.341Z,94847.97
2022-08-25T04:27:46.959Z,94844.19
2022-08-25T04:30:14.664Z,94841.31
2022-08-25T04:32:41.293Z,94849.28
2022-08-25T04:35:08.762Z,94842.97
2022-08-25T04:37:35.375Z,94841.59
2022-08-25T04:40:02.513Z,94842.50
2022-08-25T04:42:29.189Z,94845.28
2022-08-25T04:44:55.915Z,94844.53
2022-08-25T04:47:22.833Z,94850.00
2022-08-25T04:49:49.891Z,94859.69
2022-08-25T04:52:16.544Z,94844.91
2022-08-25T04:54:43.931Z,94840.13
2022-08-25T04:57:10.858Z,94853.06
2022-08-25T04:59:37.489Z,94859.44
2022-08-25T05:02:05.654Z,94858.88
2022-08-25T05:04:35.244Z,94858.50
2022-08-25T05:07:02.400Z,94859.94
2022-08-25T05:09:32.312Z,94859.28
2022-08-25T05:12:00.256Z,94854.88
2022-08-25T05:14:26.966Z,94854.66
2022-08-25T05:16:55.090Z,94845.69
2022-08-25T05:19:23.979Z,94845.59
2022-08-25T05:21:51.583Z,94851.19
2022-08-25T05:24:18.920Z,94845.50
2022-08-25T05:26:45.968Z,94844.53
2022-08-25T05:29:12.784Z,94852.03
2022-08-25T05:31:43.108Z,94855.19
2022-08-25T05:34:12.237Z,94850.75
2022-08-25T05:36:43.208Z,94827.03
2022-08-25T05:39:10.845Z,94849.84
2022-08-25T05:41:37.930Z,94843.88
2022-08-25T05:44:04.883Z,94848.59
2022-08-25T05:46:31.800Z,94848.19
2022-08-25T05:48:59.115Z,94846.41
2022-08-25T05:51:26.680Z,94846.84
2022-08-25T05:53:54.039Z,94846.66
2022-08-25T05:56:20.896Z,94845.28
2022-08-25T05:58:47.843Z,94840.91
2022-08-25T06:01:43.452Z,94846.47
2022-08-25T06:04:11.778Z,94850.34
2022-08-25T06:06:39.379Z,94835.19
2022-08-25T06:09:08.621Z,94840.34
2022-08-25T06:11:36.373Z,94837.03
2022-08-25T06:14:03.093Z,94853.03
2022-08-25T06:16:29.843Z,94842.03
2022-08-25T06:18:56.552Z,94846.31
2022-08-25T06:21:23.259Z,94851.00
2022-08-25T06:23:50.297Z,94851.63
2022-08-25T06:26:21.459Z,94842.03
2022-08-25T06:28:49.774Z,94835.75
2022-08-25T06:31:17.261Z,94843.78
2022-08-25T06:33:44.953Z,94840.81
2022-08-25T06:36:11.835Z,94842.84
2022-08-25T06:38:38.509Z,94834.16
2022-08-25T06:41:06.816Z,94842.38
2022-08-25T06:43:34.068Z,94843.09
2022-08-25T06:46:19.101Z,94850.69
2022-08-25T06:48:45.965Z,94845.91
2022-08-25T06:51:16.842Z,94841.28
2022-08-25T06:53:45.088Z,94849.31
2022-08-25T06:56:12.331Z,94841.34
2022-08-25T06:58:39.753Z,94832.69
2022-08-25T07:01:20.516Z,94841.78
2022-08-25T07:03:48.195Z,94827.22
2022-08-25T07:06:16.553Z,94843.53
2022-08-25T07:08:48.399Z,94846.38
2022-08-25T07:11:17.533Z,94849.75
2022-08-25T07:13:45.267Z,94849.78
2022-08-25T07:16:12.610Z,94847.22
2022-08-25T07:18:39.275Z,94843.81
2022-08-25T07:21:09.144Z,94846.63
2022-08-25T07:23:36.390Z,94847.03
2022-08-25T07:26:35.968Z,94847.22
2022-08-25T07:29:04.776Z,94850.75
2022-08-25T07:31:33.013Z,94841.84
2022-08-25T07:34:18.608Z,94850.22
2022-08-25T07:36:45.293Z,94845.53
2022-08-25T07:39:12.378Z,94849.75
2022-08-25T07:41:41.700Z,94846.03
2022-08-25T07:44:10.966Z,94850.31
2022-08-25T07:46:38.565Z,94848.63
2022-08-25T07:49:16.428Z,94852.31
2022-08-25T07:52:04.662Z,94847.28
2022-08-25T07:54:34.441Z,94852.69
2022-08-25T07:57:03.128Z,94845.66
2022-08-25T07:59:29.809Z,94844.31
2022-08-25T08:01:57.477Z,94842.88
2022-08-25T08:04:24.249Z,94827.91
2022-08-25T08:06:50.866Z,94834.97
2022-08-25T08:09:17.544Z,94843.88
2022-08-25T08:11:53.897Z,94837.50
2022-08-25T08:14:21.254Z,94830.34
2022-08-25T08:16:47.986Z,94826.28
2022-08-25T08:19:15.312Z,94826.22
2022-08-25T08:21:42.451Z,94826.50
2022-08-25T08:24:24.813Z,94809.88
2022-08-25T08:26:59.067Z,94824.75
2022-08-25T08:29:26.926Z,94810.06
2022-08-25T08:31:53.596Z,94811.38
2022-08-25T08:34:20.325Z,94811.59
2022-08-25T08:36:52.120Z,94810.81
2022-08-25T08:39:18.705Z,94795.81
2022-08-25T08:42:18.274Z,94807.69
2022-08-25T08:44:44.815Z,94800.03
2022-08-25T08:47:33.734Z,94803.41
2022-08-25T08:50:30.801Z,94801.06
2022-08-25T08:53:06.855Z,94799.81
2022-08-25T08:55:40.734Z,94796.25
2022-08-25T08:58:15.524Z,94787.72
2022-08-25T09:00:51.945Z,94784.84
2022-08-25T09:03:41.670Z,94790.25
2022-08-25T09:06:14.246Z,94782.25
2022-08-25T09:08:44.965Z,94793.03
2022-08-25T09:11:31.081Z,94795.19
2022-08-25T09:14:30.651Z,94790.81
2022-08-25T09:17:29.747Z,94778.41
2022-08-25T09:20:18.622Z,94782.38
2022-08-25T09:23:16.502Z,94790.78
2022-08-25T09:25:52.941Z,94789.13
2022-08-25T09:28:26.059Z,94787.16
2022-08-25T09:31:05.036Z,94776.13
2022-08-25T09:33:35.452Z,94784.25
2022-08-25T09:36:05.977Z,94779.13
2022-08-25T09:38:33.552Z,94786.56
2022-08-25T09:41:01.485Z,94776.94
2022-08-25T09:43:41.761Z,94778.19
2022-08-25T09:46:08.285Z,94773.78
2022-08-25T09:48:56.894Z,94774.19
2022-08-25T09:51:24.141Z,94781.19
2022-08-25T09:54:16.311Z,94781.09
2022-08-25T09:57:01.910Z,94763.34
2022-08-25T09:59:35.239Z,94781.38
2022-08-25T10:02:25.215Z,94782.81
2022-08-25T10:04:53.179Z,94781.31
2022-08-25T10:07:35.619Z,94786.88
2022-08-25T10:10:16.179Z,94785.47
2022-08-25T10:12:51.024Z,94778.38
2022-08-25T10:15:29.598Z,94788.66
2022-08-25T10:18:16.980Z,94785.09
2022-08-25T10:20:44.775Z,94777.09
2022-08-25T10:23:19.137Z,94769.19
2022-08-25T10:25:57.628Z,94771.22
2022-08-25T10:28:32.685Z,94770.25
2022-08-25T10:31:25.878Z,94764.72
2022-08-25T10:34:03.642Z,94768.31
2022-08-25T10:36:41.448Z,94750.84
2022-08-25T10:39:36.230Z,94797.84
2022-08-25T10:42:29.817Z,94759.78
2022-08-25T10:45:33.943Z,94758.28
2022-08-25T10:48:25.666Z,94755.19
2022-08-25T10:50:52.546Z,94763.47
2022-08-25T10:53:24.837Z,94756.81
2022-08-25T10:56:01.251Z,94750.28
2022-08-25T10:58:46.411Z,94754.78
2022-08-25T11:01:42.980Z,94757.31
2022-08-25T11:04:15.701Z,94751.06
2022-08-25T11:07:03.307Z,94748.31
2022-08-25T11:09:38.753Z,94728.94
2022-08-25T11:12:27.503Z,94739.56
2022-08-25T11:15:04.108Z,94731.75
2022-08-25T11:17:53.820Z,94745.41
2022-08-25T11:20:28.391Z,94733.53
2022-08-25T11:23:05.347Z,94740.97
2022-08-25T11:25:46.011Z,94726.44
2022-08-25T11:28:27.575Z,94729.25
2022-08-25T11:30:57.828Z,94734.47
2022-08-25T11:33:26.647Z,94721.34
2022-08-25T11:36:12.439Z,94721.97
2022-08-25T11:38:48.032Z,94720.72
2022-08-25T11:41:26.483Z,94722.84
2022-08-25T11:44:08.117Z,94716.13
2022-08-25T11:46:50.228Z,94716.50
2022-08-25T11:49:26.273Z,94722.72
2022-08-25T11:51:53.246Z,94705.91
2022-08-25T11:54:26.444Z,94708.38
2022-08-25T11:57:07.402Z,94701.75
2022-08-25T11:59:52.363Z,94701.53
2022-08-25T12:02:39.206Z,94700.25
2022-08-25T12:05:12.918Z,94694.19
2022-08-25T12:08:23.305Z,94717.00
2022-08-25T12:11:07.261Z,94689.72
2022-08-25T12:13:51.266Z,94695.28
2022-08-25T12:16:56.459Z,94697.56
2022-08-25T12:19:23.131Z,94698.19
2022-08-25T12:21:50.890Z,94705.00
2022-08-25T12:24:22.164Z,94695.19
2022-08-25T12:26:54.968Z,94688.94
2022-08-25T12:29:39.205Z,94707.94
2022-08-25T12:32:25.402Z,94705.25
2022-08-25T12:35:23.236Z,94698.59
2022-08-25T12:38:02.583Z,94691.66
2022-08-25T12:40:54.729Z,94693.09
2022-08-25T12:43:33.302Z,94696.44
2022-08-25T12:46:29.814Z,94702.38
2022-08-25T12:49:05.907Z,94694.22
2022-08-25T12:51:33.792Z,94683.47
2022-08-25T12:54:19.136Z,94697.06
2022-08-25T12:57:00.327Z,94691.69
2022-08-25T12:59:31.417Z,94685.88
2022-08-25T13:02:07.212Z,94686.28
2022-08-25T13:04:36.648Z,94690.25
2022-08-25T13:07:26.274Z,94693.50
2022-08-25T13:10:02.068Z,94690.00
2022-08-25T13:12:46.768Z,94708.22
2022-08-25T13:15:25.070Z,94676.72
2022-08-25T13:17:52.851Z,94696.38
2022-08-25T13:20:30.430Z,94693.66
2022-08-25T13:23:00.659Z,94687.00
2022-08-25T13:25:32.105Z,94682.06
2022-08-25T13:28:03.206Z,94694.34
2022-08-25T13:30:39.395Z,94691.84
2022-08-25T13:33:20.706Z,94692.47
2022-08-25T13:36:12.199Z,94681.25
2022-08-25T13:38:39.441Z,94699.81
2022-08-25T13:41:09.570Z,94690.13
2022-08-25T13:43:38.585Z,94677.97
2022-08-25T13:46:06.349Z,94691.25
2022-08-25T13:48:34.746Z,94684.41
2022-08-25T13:51:19.729Z,94688.34
2022-08-25T13:53:53.977Z,94688.81
2022-08-25T13:56:39.972Z,94696.00
2022-08-25T13:59:26.930Z,94682.34
2022-08-25T14:01:55.229Z,94689.13
2022-08-25T14:04:33.070Z,94699.75
2022-08-25T14:07:20.962Z,94693.25
2022-08-25T14:09:54.099Z,94682.03
2022-08-25T14:12:45.485Z,94679.72
2022-08-25T14:15:18.137Z,94685.03
2022-08-25T14:17:48.957Z,94681.91
2022-08-25T14:20:25.621Z,94680.72
2022-08-25T14:22:57.906Z,94673.59
2022-08-25T14:25:25.759Z,94683.06
2022-08-25T14:28:13.646Z,94689.03
2022-08-25T14:30:46.102Z,94687.97
2022-08-25T14:33:14.360Z,94677.19
2022-08-25T14:35:46.236Z,94665.59
2022-08-25T14:38:14.962Z,94694.66
2022-08-25T14:40:41.991Z,94687.06
2022-08-25T14:43:09.625Z,94673.31
2022-08-25T14:45:39.926Z,94677.28
2022-08-25T14:48:37.041Z,94676.38
2022-08-25T14:51:04.530Z,94667.25
2022-08-25T14:53:32.098Z,94680.97
2022-08-25T14:55:59.423Z,94655.38
2022-08-25T14:58:28.002Z,94670.78
2022-08-25T15:01:02.839Z,94667.84
2022-08-25T15:03:38.583Z,94670.47
2022-08-25T15:06:05.931Z,94675.38
2022-08-25T15:08:51.344Z,94663.38
2022-08-25T15:11:18.106Z,94681.38
2022-08-25T15:13:49.464Z,94670.69
2022-08-25T15:16:23.694Z,94683.31
2022-08-25T15:19:01.587Z,94664.25
2022-08-25T15:21:33.277Z,94681.94
2022-08-25T15:24:00.519Z,94671.50
2022-08-25T15:26:27.708Z,94677.72
2022-08-25T15:28:54.392Z,94683.94
2022-08-25T15:31:21.547Z,94686.91
2022-08-25T15:33:48.324Z,94677.16
2022-08-25T15:36:22.354Z,94674.66
2022-08-25T15:38:51.310Z,94682.75
2022-08-25T15:41:18.001Z,94678.63
2022-08-25T15:43:44.645Z,94680.63
2022-08-25T15:46:14.311Z,94682.09
2022-08-25T15:48:41.230Z,94680.63
2022-08-25T15:51:08.658Z,94681.53
2022-08-25T15:53:36.389Z,94673.75
2022-08-25T15:56:06.983Z,94675.00
2022-08-25T15:58:35.393Z,94676.31
2022-08-25T16:01:02.853Z,94679.94
2022-08-25T16:03:31.439Z,94680.25
2022-08-25T16:05:58.053Z,94666.31
2022-08-25T16:08:24.706Z,94675.09
2022-08-25T16:10:51.740Z,94670.09
2022-08-25T16:13:18.670Z,94664.06
2022-08-25T16:15:54.384Z,94674.41
2022-08-25T16:18:23.140Z,94677.44
2022-08-25T16:20:50.143Z,94671.97
2022-08-25T16:23:18.753Z,94665.31
2022-08-25T16:25:46.802Z,94683.84
2022-08-25T16:28:16.514Z,94671.03
2022-08-25T16:30:53.063Z,94675.00
2022-08-25T16:33:21.267Z,94673.00
2022-08-25T16:35:49.316Z,94669.63
2022-08-25T16:38:16.099Z,94661.88
2022-08-25T16:40:43.250Z,94669.09
2022-08-25T16:43:10.500Z,94673.19
2022-08-25T16:45:37.515Z,94674.53
2022-08-25T16:48:05.889Z,94676.25
2022-08-25T16:50:34.171Z,94683.75
2022-08-25T16:53:23.879Z,94679.09
2022-08-25T16:56:00.436Z,94688.59
2022-08-25T16:58:27.039Z,94697.56
2022-08-25T17:01:05.183Z,94694.81
2022-08-25T17:03:34.517Z,94689.28
2022-08-25T17:06:01.226Z,94700.78
2022-08-25T17:08:31.042Z,94692.25
2022-08-25T17:11:17.605Z,94677.25
2022-08-25T17:13:49.787Z,94691.16
2022-08-25T17:16:17.170Z,94695.44
2022-08-25T17:18:47.871Z,94690.25
2022-08-25T17:21:20.422Z,94700.47
2022-08-25T17:23:51.323Z,94695.63
2022-08-25T17:26:18.159Z,94689.13
2022-08-25T17:28:44.946Z,94693.41
2022-08-25T17:31:13.913Z,94706.22
2022-08-25T17:33:41.260Z,94698.78
2022-08-25T17:36:08.500Z,94697.13
2022-08-25T17:38:36.521Z,94696.94
2022-08-25T17:41:06.935Z,94709.00
2022-08-25T17:43:37.381Z,94714.00
2022-08-25T17:46:05.296Z,94705.13
2022-08-25T17:48:33.093Z,94704.38
2022-08-25T17:51:01.141Z,94713.47
2022-08-25T17:53:28.303Z,94714.03
2022-08-25T17:56:04.459Z,94704.00
2022-08-25T17:58:33.108Z,94717.00
2022-08-25T18:01:00.343Z,94720.34
2022-08-25T18:03:28.115Z,94730.34
2022-08-25T18:05:55.252Z,94722.75
2022-08-25T18:08:22.382Z,94724.59
2022-08-25T18:11:02.484Z,94727.94
2022-08-25T18:13:29.470Z,94731.44
2022-08-25T18:15:56.136Z,94725.69
2022-08-25T18:18:24.177Z,94725.69
2022-08-25T18:20:51.229Z,94726.41
2022-08-25T18:23:19.808Z,94724.53
2022-08-25T18:25:48.694Z,94730.25
2022-08-25T18:28:15.976Z,94724.88
2022-08-25T18:30:43.242Z,94732.47
2022-08-25T18:33:10.575Z,94730.22
2022-08-25T18:35:38.059Z,94737.97
2022-08-25T18:38:24.532Z,94721.59
2022-08-25T18:41:02.885Z,94726.59
2022-08-25T18:43:31.287Z,94728.91
2022-08-25T18:46:01.468Z,94726.63
2022-08-25T18:48:28.724Z,94725.38
2022-08-25T18:50:56.726Z,94725.97
2022-08-25T18:53:30.339Z,94720.59
2022-08-25T18:56:04.063Z,94727.22
2022-08-25T18:58:30.671Z,94726.81
2022-08-25T19:00:57.357Z,94728.13
2022-08-25T19:03:24.246Z,94703.38
2022-08-25T19:05:57.519Z,94704.19
2022-08-25T19:08:25.168Z,94718.53
2022-08-25T19:10:54.296Z,94713.78
2022-08-25T19:13:22.657Z,94717.25
2022-08-25T19:15:50.903Z,94718.59
2022-08-25T19:18:25.878Z,94720.22
2022-08-25T19:20:55.919Z,94723.75
2022-08-25T19:23:22.621Z,94718.41
2022-08-25T19:25:49.330Z,94718.69
2022-08-25T19:28:16.322Z,94722.03
2022-08-25T19:30:49.799Z,94713.06
2022-08-25T19:33:34.403Z,94711.31
2022-08-25T19:36:06.453Z,94719.56
2022-08-25T19:38:37.625Z,94716.94
2022-08-25T19:41:13.946Z,94720.97
2022-08-25T19:43:55.692Z,94720.78
2022-08-25T19:46:32.197Z,94713.47
2022-08-25T19:49:07.961Z,94717.25
2022-08-25T19:51:38.762Z,94718.94
2022-08-25T19:54:08.997Z,94713.00
2022-08-25T19:56:36.480Z,94716.31
2022-08-25T19:59:03.862Z,94719.63
2022-08-25T20:01:30.615Z,94719.41
2022-08-25T20:03:57.332Z,94719.13
2022-08-25T20:06:24.220Z,94711.44
2022-08-25T20:08:58.926Z,94712.78
2022-08-25T20:11:28.965Z,94716.31
2022-08-25T20:13:59.272Z,94718.72
2022-08-25T20:16:29.890Z,94713.47
2022-08-25T20:18:56.587Z,94722.25
2022-08-25T20:21:24.212Z,94723.47
2022-08-25T20:24:09.488Z,94724.97
2022-08-25T20:26:36.481Z,94720.56
2022-08-25T20:29:05.052Z,94730.59
2022-08-25T20:31:32.321Z,94728.22
2022-08-25T20:34:00.951Z,94732.03
2022-08-25T20:36:29.807Z,94721.47
2022-08-25T20:38:56.507Z,94718.41
2022-08-25T20:41:25.781Z,94731.75
2022-08-25T20:43:52.453Z,94735.59
2022-08-25T20:46:19.379Z,94732.34
2022-08-25T20:48:46.084Z,94729.09
2022-08-25T20:51:13.233Z,94730.16
2022-08-25T20:53:42.502Z,94726.25
2022-08-25T20:56:14.637Z,94724.88
2022-08-25T20:58:42.158Z,94726.34
2022-08-25T21:01:20.336Z,94726.03
2022-08-25T21:03:50.354Z,94726.66
2022-08-25T21:06:17.170Z,94723.34
2022-08-25T21:08:46.663Z,94727.38
2022-08-25T21:11:17.962Z,94731.75
2022-08-25T21:13:45.888Z,94723.34
2022-08-25T21:16:12.691Z,94725.69
2022-08-25T21:18:44.196Z,94718.69
2022-08-25T21:21:16.689Z,94732.25
2022-08-25T21:23:46.969Z,94731.59
2022-08-25T21:26:22.864Z,94726.66
2022-08-25T21:28:49.745Z,94725.34
2022-08-25T21:31:18.001Z,94717.50
2022-08-25T21:33:48.159Z,94731.66
2022-08-25T21:36:19.511Z,94725.06
2022-08-25T21:38:47.999Z,94715.75
2022-08-25T21:41:21.398Z,94739.22
2022-08-25T21:43:49.481Z,94728.56
2022-08-25T21:46:19.929Z,94731.56
2022-08-25T21:48:49.094Z,94727.94
2022-08-25T21:51:19.375Z,94730.06
2022-08-25T21:53:46.939Z,94730.72
2022-08-25T21:56:22.379Z,94727.63
2022-08-25T21:58:52.840Z,94733.25
2022-08-25T22:01:20.525Z,94725.28
2022-08-25T22:03:49.741Z,94723.88
2022-08-25T22:06:16.566Z,94723.66
2022-08-25T22:08:46.289Z,94716.31
2022-08-25T22:11:16.414Z,94716.09
2022-08-25T22:13:46.765Z,94704.38
2022-08-25T22:16:21.528Z,94710.16
2022-08-25T22:18:48.660Z,94682.44
2022-08-25T22:21:18.905Z,94707.78
2022-08-25T22:23:45.939Z,94697.34
2022-08-25T22:26:16.411Z,94705.34
2022-08-25T22:28:48.774Z,94695.88
2022-08-25T22:31:20.916Z,94694.16
2022-08-25T22:33:48.591Z,94702.25
2022-08-25T22:36:16.152Z,94698.50
2022-08-25T22:38:44.223Z,94701.63
2022-08-25T22:41:11.592Z,94694.91
2022-08-25T22:43:52.907Z,94694.78
2022-08-25T22:46:21.596Z,94692.34
2022-08-25T22:48:50.298Z,94701.59
2022-08-25T22:51:21.435Z,94692.97
2022-08-25T22:53:49.224Z,94678.19
2022-08-25T22:56:18.964Z,94692.66
2022-08-25T22:58:51.768Z,94686.28
2022-08-25T23:01:20.497Z,94687.78
2022-08-25T23:03:47.680Z,94684.38
2022-08-25T23:06:24.653Z,94684.78
2022-08-25T23:08:53.830Z,94675.84
2022-08-25T23:11:22.565Z,94685.00
2022-08-25T23:13:50.187Z,94678.84
2022-08-25T23:16:17.969Z,94682.22
2022-08-25T23:18:46.828Z,94677.97
2022-08-25T23:21:37.922Z,94685.13
2022-08-25T23:24:10.819Z,94684.78
2022-08-25T23:26:42.002Z,94683.16
2022-08-25T23:29:18.700Z,94673.28
2022-08-25T23:31:47.673Z,94669.88
2022-08-25T23:34:15.844Z,94669.25
2022-08-25T23:36:43.362Z,94667.00
2022-08-25T23:39:11.285Z,94669.25
2022-08-25T23:41:39.154Z,94672.22
2022-08-25T23:44:09.170Z,94661.78
2022-08-25T23:46:38.502Z,94662.84
2022-08-25T23:49:08.236Z,94663.47
2022-08-25T23:51:38.316Z,94664.56
2022-08-25T23:54:09.652Z,94654.97
2022-08-25T23:56:44.741Z,94662.84
2022-08-25T23:59:18.243Z,94660.06
